createdAt,value
2023-03-08T00:00:59.844Z,99367.97
2023-03-08T00:04:02.526Z,99376.69
2023-03-08T00:07:05.149Z,99377.44
2023-03-08T00:10:10.912Z,99383.03
2023-03-08T00:13:13.521Z,99389.59
2023-03-08T00:16:16.281Z,99391.75
2023-03-08T00:19:18.868Z,99393.88
2023-03-08T00:22:21.470Z,99391.63
2023-03-08T00:25:25.416Z,99396.13
2023-03-08T00:28:28.050Z,99389.72
2023-03-08T00:31:30.694Z,99392.38
2023-03-08T00:34:33.357Z,99392.53
2023-03-08T00:37:36.017Z,99385.97
2023-03-08T00:40:39.949Z,99391.59
2023-03-08T00:43:43.355Z,99393.13
2023-03-08T00:46:45.983Z,99398.06
2023-03-08T00:49:48.610Z,99397.28
2023-03-08T00:52:51.250Z,99400.16
2023-03-08T00:55:56.669Z,99400.00
2023-03-08T00:58:59.258Z,99409.53
2023-03-08T01:02:01.910Z,99414.34
2023-03-08T01:05:04.692Z,99416.13
2023-03-08T01:08:07.263Z,99418.13
2023-03-08T01:11:18.281Z,99414.50
2023-03-08T01:14:20.844Z,99411.63
2023-03-08T01:17:23.396Z,99410.72
2023-03-08T01:20:25.974Z,99409.94
2023-03-08T01:23:29.013Z,99412.50
2023-03-08T01:26:32.997Z,99404.75
2023-03-08T01:29:35.568Z,99404.84
2023-03-08T01:32:38.204Z,99394.25
2023-03-08T01:35:40.846Z,99392.44
2023-03-08T01:38:43.809Z,99391.53
2023-03-08T01:41:47.805Z,99393.34
2023-03-08T01:44:52.481Z,99396.22
2023-03-08T01:47:55.051Z,99393.84
2023-03-08T01:50:57.842Z,99390.50
2023-03-08T01:54:06.601Z,99396.47
2023-03-08T01:57:18.705Z,99397.44
2023-03-08T02:00:23.817Z,99389.84
2023-03-08T02:03:26.412Z,99386.44
2023-03-08T02:06:29.311Z,99389.16
2023-03-08T02:09:32.248Z,99385.72
2023-03-08T02:12:37.358Z,99388.13
2023-03-08T02:15:39.926Z,99389.50
2023-03-08T02:18:54.117Z,99386.78
2023-03-08T02:21:56.692Z,99388.59
2023-03-08T02:25:00.604Z,99376.28
2023-03-08T02:28:04.478Z,99385.88
2023-03-08T02:31:07.328Z,99380.72
2023-03-08T02:34:10.079Z,99377.13
2023-03-08T02:37:12.692Z,99380.34
2023-03-08T02:40:16.681Z,99382.13
2023-03-08T02:43:19.616Z,99378.78
2023-03-08T02:46:22.256Z,99376.34
2023-03-08T02:49:24.832Z,99382.56
2023-03-08T02:52:27.410Z,99389.00
2023-03-08T02:55:31.385Z,99379.06
2023-03-08T02:58:34.050Z,99380.56
2023-03-08T03:01:36.998Z,99379.50
2023-03-08T03:04:39.637Z,99388.41
2023-03-08T03:07:44.001Z,99388.69
2023-03-08T03:10:47.996Z,99392.66
2023-03-08T03:13:56.551Z,99390.16
2023-03-08T03:16:59.346Z,99388.63
2023-03-08T03:20:01.954Z,99395.78
2023-03-08T03:23:04.549Z,99394.84
2023-03-08T03:26:10.222Z,99390.81
2023-03-08T03:29:12.822Z,99398.47
2023-03-08T03:32:15.530Z,99391.09
2023-03-08T03:35:18.154Z,99392.41
2023-03-08T03:38:20.728Z,99390.72
2023-03-08T03:41:25.190Z,99397.94
2023-03-08T03:44:30.521Z,99393.16
2023-03-08T03:47:33.173Z,99394.88
2023-03-08T03:50:35.786Z,99396.31
2023-03-08T03:53:38.411Z,99399.94
2023-03-08T03:56:42.460Z,99400.19
2023-03-08T03:59:45.034Z,99396.72
2023-03-08T04:02:47.658Z,99401.53
2023-03-08T04:05:50.291Z,99396.75
2023-03-08T04:08:54.032Z,99402.75
2023-03-08T04:12:02.394Z,99396.75
2023-03-08T04:15:05.856Z,99399.91
2023-03-08T04:18:08.436Z,99399.38
2023-03-08T04:21:11.951Z,99405.06
2023-03-08T04:24:14.565Z,99403.84
2023-03-08T04:27:18.486Z,99399.97
2023-03-08T04:30:21.206Z,99399.69
2023-03-08T04:33:24.337Z,99405.19
2023-03-08T04:36:26.955Z,99408.97
2023-03-08T04:39:29.636Z,99400.47
2023-03-08T04:42:33.586Z,99387.47
2023-03-08T04:45:36.168Z,99401.16
2023-03-08T04:48:39.206Z,99398.84
2023-03-08T04:51:41.855Z,99400.91
2023-03-08T04:54:44.513Z,99404.53
2023-03-08T04:57:48.428Z,99405.19
2023-03-08T05:00:51.081Z,99396.66
2023-03-08T05:03:54.352Z,99406.63
2023-03-08T05:06:56.933Z,99407.47
2023-03-08T05:10:00.261Z,99410.59
2023-03-08T05:13:04.272Z,99412.44
2023-03-08T05:16:08.622Z,99402.63
2023-03-08T05:19:11.253Z,99403.41
2023-03-08T05:22:14.010Z,99412.09
2023-03-08T05:25:16.650Z,99417.06
2023-03-08T05:28:20.773Z,99406.16
2023-03-08T05:31:23.750Z,99402.22
2023-03-08T05:34:26.475Z,99400.44
2023-03-08T05:37:29.066Z,99403.38
2023-03-08T05:40:31.649Z,99400.59
2023-03-08T05:43:36.449Z,99400.72
2023-03-08T05:46:39.191Z,99400.88
2023-03-08T05:49:41.800Z,99392.13
2023-03-08T05:52:45.198Z,99400.78
2023-03-08T05:55:47.781Z,99402.81
2023-03-08T05:58:52.625Z,99404.06
2023-03-08T06:01:55.206Z,99396.44
2023-03-08T06:04:57.791Z,99404.69
2023-03-08T06:08:00.912Z,99409.66
2023-03-08T06:11:03.624Z,99404.75
2023-03-08T06:14:07.543Z,99410.72
2023-03-08T06:17:10.127Z,99410.94
2023-03-08T06:20:13.136Z,99409.22
2023-03-08T06:23:15.718Z,99414.75
2023-03-08T06:26:18.599Z,99415.75
2023-03-08T06:29:22.640Z,99409.13
2023-03-08T06:32:25.326Z,99414.94
2023-03-08T06:35:27.958Z,99411.22
2023-03-08T06:38:33.548Z,99406.31
2023-03-08T06:41:36.623Z,99399.53
2023-03-08T06:44:40.562Z,99402.72
2023-03-08T06:47:43.151Z,99404.88
2023-03-08T06:50:46.134Z,99403.84
2023-03-08T06:53:49.167Z,99404.53
2023-03-08T06:56:51.761Z,99399.09
2023-03-08T06:59:55.696Z,99408.28
2023-03-08T07:02:58.412Z,99402.31
2023-03-08T07:06:01.504Z,99407.94
2023-03-08T07:09:04.676Z,99407.09
2023-03-08T07:12:08.237Z,99403.16
2023-03-08T07:15:14.471Z,99410.88
2023-03-08T07:18:17.072Z,99416.63
2023-03-08T07:21:19.648Z,99416.19
2023-03-08T07:24:22.201Z,99418.00
2023-03-08T07:27:24.961Z,99419.78
2023-03-08T07:30:29.018Z,99413.34
2023-03-08T07:33:31.652Z,99411.16
2023-03-08T07:36:34.545Z,99409.88
2023-03-08T07:39:37.108Z,99402.94
2023-03-08T07:42:39.696Z,99409.88
2023-03-08T07:45:43.639Z,99407.25
2023-03-08T07:48:46.226Z,99409.34
2023-03-08T07:51:51.320Z,99408.56
2023-03-08T07:54:53.899Z,99416.38
2023-03-08T07:57:56.492Z,99422.19
2023-03-08T08:01:00.447Z,99423.34
2023-03-08T08:04:03.768Z,99419.88
2023-03-08T08:07:06.640Z,99422.91
2023-03-08T08:10:10.126Z,99420.13
2023-03-08T08:13:12.745Z,99405.94
2023-03-08T08:16:17.842Z,99401.78
2023-03-08T08:19:20.436Z,99399.78
2023-03-08T08:22:23.044Z,99398.06
2023-03-08T08:25:25.897Z,99406.31
2023-03-08T08:28:28.922Z,99400.22
2023-03-08T08:31:33.024Z,99400.59
2023-03-08T08:34:35.657Z,99397.84
2023-03-08T08:37:38.251Z,99393.81
2023-03-08T08:40:40.817Z,99396.97
2023-03-08T08:43:43.980Z,99399.63
2023-03-08T08:46:47.928Z,99403.09
2023-03-08T08:49:50.535Z,99408.84
2023-03-08T08:52:53.136Z,99406.41
2023-03-08T08:55:55.743Z,99403.09
2023-03-08T08:59:00.351Z,99407.69
2023-03-08T09:02:04.398Z,99405.50
2023-03-08T09:05:07.414Z,99409.28
2023-03-08T09:08:10.685Z,99407.41
2023-03-08T09:11:13.289Z,99413.91
2023-03-08T09:14:16.175Z,99404.72
2023-03-08T09:17:20.082Z,99404.75
2023-03-08T09:20:23.589Z,99399.94
2023-03-08T09:23:26.395Z,99396.84
2023-03-08T09:26:30.424Z,99392.41
2023-03-08T09:29:33.736Z,99390.81
2023-03-08T09:32:37.686Z,99395.56
2023-03-08T09:35:40.461Z,99394.53
2023-03-08T09:38:43.408Z,99391.09
2023-03-08T09:41:50.547Z,99395.41
2023-03-08T09:45:02.280Z,99389.03
2023-03-08T09:48:14.231Z,99395.78
2023-03-08T09:51:20.577Z,99392.56
2023-03-08T09:54:25.631Z,99381.94
2023-03-08T09:57:32.421Z,99383.38
2023-03-08T10:00:37.075Z,99375.22
2023-03-08T10:03:57.873Z,99372.91
2023-03-08T10:07:17.318Z,99369.97
2023-03-08T10:10:31.901Z,99366.41
2023-03-08T10:13:36.397Z,99362.47
2023-03-08T10:16:45.063Z,99364.63
2023-03-08T10:19:56.562Z,99358.66
2023-03-08T10:23:02.214Z,99365.53
2023-03-08T10:26:10.549Z,99355.75
2023-03-08T10:29:14.348Z,99347.09
2023-03-08T10:32:17.083Z,99345.19
2023-03-08T10:35:33.008Z,99353.91
2023-03-08T10:38:37.823Z,99351.81
2023-03-08T10:41:44.143Z,99337.16
2023-03-08T10:44:53.928Z,99334.69
2023-03-08T10:47:58.815Z,99338.78
2023-03-08T10:51:06.550Z,99339.94
2023-03-08T10:54:16.233Z,99337.94
2023-03-08T10:57:21.555Z,99329.38
2023-03-08T11:00:35.943Z,99322.34
2023-03-08T11:03:38.518Z,99322.53
2023-03-08T11:06:42.977Z,99317.03
2023-03-08T11:09:45.565Z,99315.94
2023-03-08T11:12:48.264Z,99313.63
2023-03-08T11:15:57.256Z,99309.19
2023-03-08T11:19:12.290Z,99310.69
2023-03-08T11:22:27.025Z,99320.47
2023-03-08T11:25:37.363Z,99314.59
2023-03-08T11:28:56.118Z,99309.06
2023-03-08T11:32:07.148Z,99314.00
2023-03-08T11:35:17.101Z,99308.00
2023-03-08T11:38:25.407Z,99306.69
2023-03-08T11:41:39.590Z,99302.81
2023-03-08T11:45:00.920Z,99297.22
2023-03-08T11:48:21.621Z,99289.47
2023-03-08T11:51:33.667Z,99290.25
2023-03-08T11:54:52.164Z,99286.06
2023-03-08T11:57:59.308Z,99287.81
2023-03-08T12:01:03.834Z,99289.41
2023-03-08T12:04:12.595Z,99284.88
2023-03-08T12:07:23.103Z,99283.03
2023-03-08T12:10:30.098Z,99282.38
2023-03-08T12:13:35.264Z,99277.25
2023-03-08T12:16:45.804Z,99281.84
2023-03-08T12:19:50.570Z,99283.03
2023-03-08T12:22:58.696Z,99280.00
2023-03-08T12:26:09.818Z,99273.19
2023-03-08T12:29:20.770Z,99274.75
2023-03-08T12:32:27.129Z,99284.19
2023-03-08T12:35:31.840Z,99277.41
2023-03-08T12:38:37.864Z,99269.28
2023-03-08T12:41:41.916Z,99274.38
2023-03-08T12:44:45.666Z,99266.16
2023-03-08T12:47:57.713Z,99264.81
2023-03-08T12:51:09.674Z,99260.47
2023-03-08T12:54:23.379Z,99264.44
2023-03-08T12:57:30.667Z,99253.78
2023-03-08T13:00:36.144Z,99256.28
2023-03-08T13:03:41.324Z,99259.06
2023-03-08T13:07:20.090Z,99258.03
2023-03-08T13:10:24.406Z,99272.69
2023-03-08T13:13:39.255Z,99270.13
2023-03-08T13:16:42.198Z,99264.03
2023-03-08T13:19:45.173Z,99263.53
2023-03-08T13:23:01.690Z,99258.63
2023-03-08T13:26:31.372Z,99255.97
2023-03-08T13:29:39.821Z,99261.66
2023-03-08T13:32:42.525Z,99256.66
2023-03-08T13:35:55.412Z,99258.91
2023-03-08T13:39:00.258Z,99265.19
2023-03-08T13:42:08.447Z,99272.81
2023-03-08T13:45:18.657Z,99270.34
2023-03-08T13:48:23.717Z,99270.84
2023-03-08T13:51:28.262Z,99270.25
2023-03-08T13:54:33.307Z,99278.28
2023-03-08T13:57:38.970Z,99265.38
2023-03-08T14:00:43.114Z,99259.38
2023-03-08T14:03:47.279Z,99263.31
2023-03-08T14:06:51.505Z,99270.16
2023-03-08T14:09:54.169Z,99263.16
2023-03-08T14:12:57.108Z,99259.28
2023-03-08T14:16:02.786Z,99259.19
2023-03-08T14:19:11.988Z,99261.03
2023-03-08T14:22:32.266Z,99250.63
2023-03-08T14:25:38.900Z,99251.66
2023-03-08T14:28:42.865Z,99245.28
2023-03-08T14:32:05.810Z,99246.13
2023-03-08T14:35:17.544Z,99241.56
2023-03-08T14:38:25.553Z,99236.53
2023-03-08T14:41:33.468Z,99235.28
2023-03-08T14:44:36.266Z,99233.00
2023-03-08T14:47:50.675Z,99225.91
2023-03-08T14:50:56.024Z,99226.44
2023-03-08T14:54:00.865Z,99225.00
2023-03-08T14:57:16.973Z,99226.25
2023-03-08T15:00:20.457Z,99221.69
2023-03-08T15:03:25.295Z,99212.75
2023-03-08T15:06:30.564Z,99209.19
2023-03-08T15:09:33.464Z,99207.13
2023-03-08T15:12:36.199Z,99200.41
2023-03-08T15:15:38.797Z,99204.19
2023-03-08T15:18:42.934Z,99205.75
2023-03-08T15:21:45.530Z,99202.34
2023-03-08T15:24:48.111Z,99200.78
2023-03-08T15:27:50.811Z,99200.16
2023-03-08T15:30:54.881Z,99201.41
2023-03-08T15:33:58.938Z,99200.59
2023-03-08T15:37:01.591Z,99204.59
2023-03-08T15:40:08.223Z,99208.59
2023-03-08T15:43:11.643Z,99211.72
2023-03-08T15:46:15.329Z,99204.19
2023-03-08T15:49:19.317Z,99202.31
2023-03-08T15:52:24.685Z,99200.94
2023-03-08T15:55:30.798Z,99195.69
2023-03-08T15:58:33.380Z,99189.25
2023-03-08T16:01:36.001Z,99194.63
2023-03-08T16:04:41.968Z,99201.59
2023-03-08T16:07:44.584Z,99199.88
2023-03-08T16:10:47.302Z,99198.75
2023-03-08T16:13:51.893Z,99191.06
2023-03-08T16:16:54.499Z,99198.09
2023-03-08T16:19:58.526Z,99189.38
2023-03-08T16:23:01.094Z,99193.06
2023-03-08T16:26:15.206Z,99189.38
2023-03-08T16:29:19.147Z,99188.84
2023-03-08T16:32:21.876Z,99182.16
2023-03-08T16:35:25.910Z,99185.72
2023-03-08T16:38:28.511Z,99180.38
2023-03-08T16:41:31.106Z,99180.63
2023-03-08T16:44:33.768Z,99192.84
2023-03-08T16:47:36.417Z,99198.28
2023-03-08T16:50:40.348Z,99200.75
2023-03-08T16:53:43.563Z,99197.59
2023-03-08T16:56:46.181Z,99194.22
2023-03-08T16:59:49.291Z,99201.34
2023-03-08T17:02:51.878Z,99211.41
2023-03-08T17:05:55.844Z,99198.94
2023-03-08T17:08:59.285Z,99197.09
2023-03-08T17:12:02.062Z,99203.53
2023-03-08T17:15:05.293Z,99196.69
2023-03-08T17:18:08.428Z,99203.28
2023-03-08T17:21:12.380Z,99205.34
2023-03-08T17:24:15.680Z,99207.47
2023-03-08T17:27:18.244Z,99211.94
2023-03-08T17:30:20.979Z,99221.88
2023-03-08T17:33:25.908Z,99210.91
2023-03-08T17:36:30.033Z,99213.91
2023-03-08T17:39:32.633Z,99205.53
2023-03-08T17:42:36.365Z,99207.28
2023-03-08T17:45:38.955Z,99211.22
2023-03-08T17:48:41.913Z,99216.84
2023-03-08T17:51:45.842Z,99221.44
2023-03-08T17:54:49.030Z,99227.59
2023-03-08T17:57:52.068Z,99226.19
2023-03-08T18:00:54.889Z,99225.94
2023-03-08T18:03:58.292Z,99226.84
2023-03-08T18:07:02.197Z,99224.31
2023-03-08T18:10:06.062Z,99225.09
2023-03-08T18:13:08.599Z,99224.72
2023-03-08T18:16:11.205Z,99222.41
2023-03-08T18:19:14.037Z,99218.72
2023-03-08T18:22:18.331Z,99221.47
2023-03-08T18:25:20.959Z,99220.19
2023-03-08T18:28:23.533Z,99217.25
2023-03-08T18:31:27.107Z,99212.25
2023-03-08T18:34:30.305Z,99207.75
2023-03-08T18:37:34.476Z,99210.19
2023-03-08T18:40:37.061Z,99214.16
2023-03-08T18:43:40.886Z,99212.19
2023-03-08T18:46:43.767Z,99208.47
2023-03-08T18:49:46.447Z,99197.00
2023-03-08T18:52:50.367Z,99192.13
2023-03-08T18:55:58.105Z,99196.28
2023-03-08T18:59:03.211Z,99188.91
2023-03-08T19:02:05.833Z,99191.59
2023-03-08T19:05:09.030Z,99183.06
2023-03-08T19:08:12.976Z,99183.91
2023-03-08T19:11:17.738Z,99189.03
2023-03-08T19:14:20.324Z,99188.53
2023-03-08T19:17:22.951Z,99182.66
2023-03-08T19:20:26.533Z,99183.50
2023-03-08T19:23:30.479Z,99185.66
2023-03-08T19:26:37.759Z,99180.09
2023-03-08T19:29:40.386Z,99186.22
2023-03-08T19:32:43.107Z,99187.16
2023-03-08T19:35:45.784Z,99180.34
2023-03-08T19:38:49.865Z,99183.84
2023-03-08T19:41:54.343Z,99177.50
2023-03-08T19:44:56.930Z,99183.97
2023-03-08T19:47:59.482Z,99186.97
2023-03-08T19:51:02.548Z,99183.97
2023-03-08T19:54:06.883Z,99178.94
2023-03-08T19:57:10.336Z,99181.03
2023-03-08T20:00:14.798Z,99184.34
2023-03-08T20:03:18.429Z,99180.34
2023-03-08T20:06:25.854Z,99175.81
2023-03-08T20:09:30.119Z,99171.47
2023-03-08T20:12:33.177Z,99180.25
2023-03-08T20:15:35.805Z,99183.88
2023-03-08T20:18:38.643Z,99189.81
2023-03-08T20:21:41.261Z,99192.53
2023-03-08T20:24:45.435Z,99191.88
2023-03-08T20:27:48.032Z,99191.91
2023-03-08T20:30:50.642Z,99197.19
2023-03-08T20:33:53.600Z,99209.59
2023-03-08T20:36:56.208Z,99219.84
2023-03-08T20:40:01.261Z,99213.63
2023-03-08T20:43:03.866Z,99213.41
2023-03-08T20:46:09.145Z,99213.41
2023-03-08T20:49:12.372Z,99217.78
2023-03-08T20:52:15.121Z,99225.59
2023-03-08T20:55:19.308Z,99227.56
2023-03-08T20:58:22.228Z,99215.84
2023-03-08T21:01:26.804Z,99216.94
2023-03-08T21:04:30.368Z,99212.53
2023-03-08T21:07:33.401Z,99211.09
2023-03-08T21:10:39.242Z,99206.53
2023-03-08T21:13:42.130Z,99201.31
2023-03-08T21:16:44.856Z,99214.59
2023-03-08T21:19:47.408Z,99223.44
2023-03-08T21:22:50.606Z,99228.19
2023-03-08T21:25:54.933Z,99233.13
2023-03-08T21:29:00.751Z,99236.19
2023-03-08T21:32:04.131Z,99235.44
2023-03-08T21:35:07.478Z,99235.56
2023-03-08T21:38:10.650Z,99216.50
2023-03-08T21:41:22.439Z,99210.88
2023-03-08T21:44:25.533Z,99211.00
2023-03-08T21:47:28.108Z,99200.47
2023-03-08T21:50:30.673Z,99190.00
2023-03-08T21:53:33.398Z,99175.91
2023-03-08T21:56:37.383Z,99160.41
2023-03-08T21:59:40.017Z,99166.38
2023-03-08T22:02:45.688Z,99161.94
2023-03-08T22:05:48.608Z,99172.13
2023-03-08T22:08:51.472Z,99168.81
2023-03-08T22:11:56.865Z,99170.44
2023-03-08T22:14:59.464Z,99165.84
2023-03-08T22:18:02.067Z,99173.75
2023-03-08T22:21:04.802Z,99174.69
2023-03-08T22:24:07.769Z,99180.91
2023-03-08T22:27:13.038Z,99166.31
2023-03-08T22:30:15.860Z,99175.78
2023-03-08T22:33:18.493Z,99172.25
2023-03-08T22:36:22.472Z,99177.03
2023-03-08T22:39:25.096Z,99173.97
2023-03-08T22:42:29.110Z,99167.00
2023-03-08T22:45:31.729Z,99163.16
2023-03-08T22:48:34.508Z,99167.47
2023-03-08T22:51:37.063Z,99160.59
2023-03-08T22:54:39.629Z,99165.84
2023-03-08T22:57:43.551Z,99171.00
2023-03-08T23:00:47.248Z,99175.56
2023-03-08T23:03:50.179Z,99177.25
2023-03-08T23:06:53.206Z,99174.31
2023-03-08T23:09:55.747Z,99176.09
2023-03-08T23:12:59.908Z,99167.53
2023-03-08T23:16:03.179Z,99166.91
2023-03-08T23:19:06.132Z,99152.53
2023-03-08T23:22:08.686Z,99148.94
2023-03-08T23:25:11.565Z,99150.59
2023-03-08T23:28:15.490Z,99153.22
2023-03-08T23:31:20.553Z,99155.81
2023-03-08T23:34:23.427Z,99160.41
2023-03-08T23:37:26.292Z,99158.66
2023-03-08T23:40:28.847Z,99158.31
2023-03-08T23:43:32.827Z,99159.50
2023-03-08T23:46:35.404Z,99154.63
2023-03-08T23:49:37.980Z,99157.09
2023-03-08T23:52:40.552Z,99151.63
2023-03-08T23:55:44.027Z,99147.19
2023-03-08T23:58:50.571Z,99148.19
